createdAt,value
2023-01-30T00:01:07.089Z,4.37
2023-01-30T00:03:34.477Z,4.32
2023-01-30T00:06:01.211Z,4.32
2023-01-30T00:08:29.082Z,4.26
2023-01-30T00:10:57.679Z,4.25
2023-01-30T00:13:26.335Z,4.27
2023-01-30T00:15:53.459Z,4.28
2023-01-30T00:18:20.187Z,4.29
2023-01-30T00:20:46.928Z,4.33
2023-01-30T00:23:13.762Z,4.33
2023-01-30T00:25:40.591Z,4.27
2023-01-30T00:28:07.543Z,4.26
2023-01-30T00:30:34.650Z,4.27
2023-01-30T00:33:01.530Z,4.26
2023-01-30T00:35:31.034Z,4.25
2023-01-30T00:37:58.452Z,4.25
2023-01-30T00:40:26.513Z,4.25
2023-01-30T00:43:12.624Z,4.20
2023-01-30T00:46:00.204Z,4.24
2023-01-30T00:48:27.579Z,4.34
2023-01-30T00:50:54.540Z,4.34
2023-01-30T00:53:21.433Z,4.30
2023-01-30T00:55:51.266Z,4.26
2023-01-30T00:58:19.321Z,4.17
2023-01-30T01:00:46.060Z,4.17
2023-01-30T01:03:13.038Z,4.15
2023-01-30T01:05:40.747Z,4.06
2023-01-30T01:08:07.554Z,3.99
2023-01-30T01:10:34.410Z,3.96
2023-01-30T01:13:01.254Z,3.92
2023-01-30T01:15:28.122Z,3.93
2023-01-30T01:17:54.991Z,3.89
2023-01-30T01:20:22.441Z,3.89
2023-01-30T01:22:53.945Z,3.90
2023-01-30T01:25:21.246Z,3.87
2023-01-30T01:27:48.433Z,3.91
2023-01-30T01:30:17.182Z,3.91
2023-01-30T01:32:44.541Z,3.89
2023-01-30T01:35:11.519Z,3.90
2023-01-30T01:37:38.452Z,3.86
2023-01-30T01:40:25.172Z,3.88
2023-01-30T01:42:52.303Z,3.83
2023-01-30T01:45:23.552Z,3.85
2023-01-30T01:48:15.862Z,3.83
2023-01-30T01:50:48.887Z,3.92
2023-01-30T01:53:18.120Z,3.93
2023-01-30T01:55:47.167Z,3.95
2023-01-30T01:58:28.953Z,3.97
2023-01-30T02:00:58.066Z,4.00
2023-01-30T02:03:26.905Z,4.04
2023-01-30T02:05:57.393Z,4.12
2023-01-30T02:08:34.583Z,4.22
2023-01-30T02:11:22.460Z,4.29
2023-01-30T02:13:50.865Z,4.33
2023-01-30T02:16:21.166Z,4.30
2023-01-30T02:18:48.414Z,4.43
2023-01-30T02:21:18.268Z,4.48
2023-01-30T02:23:59.644Z,4.57
2023-01-30T02:26:46.277Z,4.62
2023-01-30T02:29:44.577Z,4.58
2023-01-30T02:32:35.062Z,4.59
2023-01-30T02:35:11.059Z,4.58
2023-01-30T02:37:56.601Z,4.52
2023-01-30T02:40:30.502Z,4.57
2023-01-30T02:43:21.569Z,4.58
2023-01-30T02:46:02.771Z,4.62
2023-01-30T02:48:44.806Z,4.63
2023-01-30T02:51:16.567Z,4.66
2023-01-30T02:53:46.817Z,4.78
2023-01-30T02:56:13.676Z,4.80
2023-01-30T02:58:44.202Z,4.78
2023-01-30T03:01:14.052Z,4.72
2023-01-30T03:03:46.611Z,4.61
2023-01-30T03:06:13.362Z,4.55
2023-01-30T03:09:03.185Z,4.53
2023-01-30T03:11:39.203Z,4.46
2023-01-30T03:14:15.507Z,4.45
2023-01-30T03:16:42.814Z,4.49
2023-01-30T03:19:13.543Z,4.51
2023-01-30T03:21:42.220Z,4.56
2023-01-30T03:24:08.985Z,4.56
2023-01-30T03:26:38.452Z,4.63
2023-01-30T03:29:05.480Z,4.58
2023-01-30T03:31:32.407Z,4.56
2023-01-30T03:33:59.657Z,4.59
2023-01-30T03:36:27.227Z,4.62
2023-01-30T03:38:56.327Z,4.68
2023-01-30T03:41:23.562Z,4.79
2023-01-30T03:43:51.060Z,4.80
2023-01-30T03:46:18.036Z,4.80
2023-01-30T03:48:44.918Z,4.72
2023-01-30T03:51:13.137Z,4.72
2023-01-30T03:53:40.189Z,4.71
2023-01-30T03:56:07.094Z,4.72
2023-01-30T03:58:36.118Z,4.72
2023-01-30T04:01:15.129Z,4.71
2023-01-30T04:03:41.935Z,4.63
2023-01-30T04:06:08.991Z,4.59
2023-01-30T04:08:35.803Z,4.59
2023-01-30T04:11:04.062Z,4.52
2023-01-30T04:13:30.914Z,4.49
2023-01-30T04:16:19.191Z,4.51
2023-01-30T04:18:58.285Z,4.48
2023-01-30T04:21:27.117Z,4.42
2023-01-30T04:23:53.830Z,4.41
2023-01-30T04:26:20.725Z,4.41
2023-01-30T04:28:47.545Z,4.39
2023-01-30T04:31:14.460Z,4.42
2023-01-30T04:33:52.589Z,4.37
2023-01-30T04:36:19.927Z,4.35
2023-01-30T04:38:46.717Z,4.32
2023-01-30T04:41:13.851Z,4.35
2023-01-30T04:43:42.545Z,4.32
2023-01-30T04:46:44.611Z,4.44
2023-01-30T04:49:13.142Z,4.40
2023-01-30T04:51:39.942Z,4.38
2023-01-30T04:54:06.907Z,4.41
2023-01-30T04:56:33.797Z,4.34
2023-01-30T04:59:00.841Z,4.41
2023-01-30T05:01:35.282Z,4.33
2023-01-30T05:04:03.261Z,4.33
2023-01-30T05:06:30.976Z,4.32
2023-01-30T05:08:58.163Z,4.40
2023-01-30T05:11:26.575Z,4.40
2023-01-30T05:13:53.567Z,4.44
2023-01-30T05:16:22.165Z,4.47
2023-01-30T05:18:49.887Z,4.47
2023-01-30T05:21:20.640Z,4.53
2023-01-30T05:23:47.554Z,4.55
2023-01-30T05:26:15.041Z,4.57
2023-01-30T05:28:42.606Z,4.58
2023-01-30T05:31:13.640Z,4.52
2023-01-30T05:33:40.614Z,4.43
2023-01-30T05:36:08.172Z,4.32
2023-01-30T05:38:34.988Z,4.21
2023-01-30T05:41:12.078Z,4.09
2023-01-30T05:43:39.356Z,4.10
2023-01-30T05:46:07.231Z,4.07
2023-01-30T05:48:34.517Z,4.05
2023-01-30T05:51:01.372Z,4.12
2023-01-30T05:53:31.552Z,4.01
2023-01-30T05:56:00.160Z,4.12
2023-01-30T05:58:27.941Z,4.12
2023-01-30T06:00:55.046Z,4.09
2023-01-30T06:03:21.772Z,4.07
2023-01-30T06:05:48.654Z,4.01
2023-01-30T06:08:15.596Z,4.05
2023-01-30T06:10:42.430Z,4.14
2023-01-30T06:13:11.144Z,4.22
2023-01-30T06:15:38.558Z,4.29
2023-01-30T06:18:05.400Z,4.36
2023-01-30T06:20:32.232Z,4.46
2023-01-30T06:22:58.984Z,4.52
2023-01-30T06:25:25.773Z,4.59
2023-01-30T06:27:52.576Z,4.62
2023-01-30T06:30:19.478Z,4.60
2023-01-30T06:32:50.483Z,4.58
2023-01-30T06:35:17.494Z,4.61
2023-01-30T06:37:45.559Z,4.64
2023-01-30T06:40:12.999Z,4.61
2023-01-30T06:42:44.606Z,4.50
2023-01-30T06:45:11.877Z,4.54
2023-01-30T06:47:45.853Z,4.55
2023-01-30T06:50:13.395Z,4.65
2023-01-30T06:52:43.609Z,4.60
2023-01-30T06:55:12.302Z,4.58
2023-01-30T06:57:39.139Z,4.55
2023-01-30T07:00:07.958Z,4.58
2023-01-30T07:02:35.523Z,4.58
2023-01-30T07:05:02.913Z,4.63
2023-01-30T07:07:30.245Z,4.58
2023-01-30T07:10:07.289Z,4.58
2023-01-30T07:12:37.740Z,4.56
2023-01-30T07:15:06.721Z,4.57
2023-01-30T07:17:33.604Z,4.64
2023-01-30T07:20:00.519Z,4.65
2023-01-30T07:22:27.479Z,4.63
2023-01-30T07:24:54.363Z,4.65
2023-01-30T07:27:21.266Z,4.61
2023-01-30T07:29:48.034Z,4.57
2023-01-30T07:32:16.609Z,4.53
2023-01-30T07:34:43.436Z,4.50
2023-01-30T07:37:10.607Z,4.50
2023-01-30T07:39:37.372Z,4.42
2023-01-30T07:42:05.255Z,4.33
2023-01-30T07:44:33.677Z,4.35
2023-01-30T07:47:01.108Z,4.36
2023-01-30T07:49:28.036Z,4.32
2023-01-30T07:51:54.923Z,4.31
2023-01-30T07:54:21.756Z,4.28
2023-01-30T07:56:48.642Z,4.27
2023-01-30T07:59:15.407Z,4.30
2023-01-30T08:01:42.269Z,4.35
2023-01-30T08:04:09.165Z,4.32
2023-01-30T08:06:39.822Z,4.27
2023-01-30T08:09:16.097Z,4.30
2023-01-30T08:11:42.932Z,4.33
2023-01-30T08:14:09.679Z,4.33
2023-01-30T08:16:37.177Z,4.27
2023-01-30T08:19:05.156Z,4.26
2023-01-30T08:21:32.267Z,4.22
2023-01-30T08:24:01.014Z,4.21
2023-01-30T08:26:28.155Z,4.19
2023-01-30T08:28:56.104Z,4.18
2023-01-30T08:31:23.330Z,4.17
2023-01-30T08:33:50.233Z,4.24
2023-01-30T08:36:17.052Z,4.15
2023-01-30T08:38:43.872Z,4.17
2023-01-30T08:41:10.795Z,4.17
2023-01-30T08:43:37.596Z,4.15
2023-01-30T08:46:04.662Z,4.22
2023-01-30T08:48:43.340Z,4.14
2023-01-30T08:51:14.733Z,4.22
2023-01-30T08:53:41.634Z,4.15
2023-01-30T08:56:08.490Z,4.23
2023-01-30T08:58:35.209Z,4.10
2023-01-30T09:01:06.331Z,4.17
2023-01-30T09:03:33.170Z,4.27
2023-01-30T09:05:59.913Z,4.45
2023-01-30T09:08:26.724Z,4.52
2023-01-30T09:10:53.467Z,4.50
2023-01-30T09:13:20.348Z,4.40
2023-01-30T09:15:47.115Z,4.37
2023-01-30T09:18:14.010Z,4.33
2023-01-30T09:20:40.782Z,4.35
2023-01-30T09:23:07.693Z,4.49
2023-01-30T09:25:35.806Z,4.38
2023-01-30T09:28:03.020Z,4.43
2023-01-30T09:30:29.861Z,4.48
2023-01-30T09:32:56.778Z,4.48
2023-01-30T09:35:23.535Z,4.47
2023-01-30T09:37:51.851Z,4.50
2023-01-30T09:40:22.151Z,4.49
2023-01-30T09:43:19.941Z,4.52
2023-01-30T09:46:05.002Z,4.54
2023-01-30T09:49:04.458Z,4.60
2023-01-30T09:51:44.228Z,4.64
2023-01-30T09:54:22.437Z,4.67
2023-01-30T09:57:01.371Z,4.67
2023-01-30T09:59:34.904Z,4.78
2023-01-30T10:02:29.878Z,4.72
2023-01-30T10:05:01.907Z,4.77
2023-01-30T10:07:34.902Z,4.85
2023-01-30T10:10:40.575Z,4.88
2023-01-30T10:13:33.264Z,4.92
2023-01-30T10:16:06.204Z,4.91
2023-01-30T10:18:54.111Z,4.88
2023-01-30T10:21:46.106Z,4.93
2023-01-30T10:24:24.972Z,4.96
2023-01-30T10:26:52.293Z,5.05
2023-01-30T10:29:30.507Z,5.12
2023-01-30T10:32:29.004Z,5.14
2023-01-30T10:34:59.811Z,5.18
2023-01-30T10:37:50.762Z,5.24
2023-01-30T10:40:23.643Z,5.27
2023-01-30T10:43:02.494Z,5.36
2023-01-30T10:45:37.810Z,5.37
2023-01-30T10:48:45.896Z,5.36
2023-01-30T10:51:41.292Z,5.44
2023-01-30T10:54:19.861Z,5.53
2023-01-30T10:57:11.378Z,5.43
2023-01-30T10:59:55.447Z,5.52
2023-01-30T11:02:51.993Z,5.49
2023-01-30T11:05:21.893Z,5.51
2023-01-30T11:07:48.767Z,5.43
2023-01-30T11:10:19.950Z,5.55
2023-01-30T11:12:46.951Z,5.62
2023-01-30T11:15:13.712Z,5.58
2023-01-30T11:17:42.198Z,5.64
2023-01-30T11:20:14.405Z,5.68
2023-01-30T11:23:06.560Z,5.63
2023-01-30T11:25:47.781Z,5.76
2023-01-30T11:28:17.430Z,5.76
2023-01-30T11:30:45.057Z,5.78
2023-01-30T11:33:14.042Z,5.77
2023-01-30T11:36:05.371Z,5.93
2023-01-30T11:38:35.116Z,5.89
2023-01-30T11:41:11.040Z,5.88
2023-01-30T11:43:39.869Z,5.94
2023-01-30T11:46:12.924Z,5.95
2023-01-30T11:49:11.108Z,5.96
2023-01-30T11:51:35.385Z,6.02
2023-01-30T11:54:06.525Z,6.11
2023-01-30T11:56:41.018Z,6.12
2023-01-30T11:59:28.485Z,6.16
2023-01-30T12:02:06.313Z,6.15
2023-01-30T12:04:33.724Z,6.16
2023-01-30T12:07:27.705Z,6.24
2023-01-30T12:09:55.370Z,6.21
2023-01-30T12:12:32.680Z,6.31
2023-01-30T12:15:48.680Z,6.28
2023-01-30T12:18:33.328Z,6.41
2023-01-30T12:21:20.579Z,6.42
2023-01-30T12:23:57.732Z,6.49
2023-01-30T12:26:33.842Z,6.36
2023-01-30T12:29:10.213Z,6.41
2023-01-30T12:31:42.570Z,6.46
2023-01-30T12:34:10.275Z,6.34
2023-01-30T12:36:52.282Z,6.26
2023-01-30T12:39:56.651Z,6.37
2023-01-30T12:43:07.122Z,6.37
2023-01-30T12:46:11.696Z,6.49
2023-01-30T12:49:07.915Z,6.50
2023-01-30T12:51:58.041Z,6.51
2023-01-30T12:54:35.068Z,6.54
2023-01-30T12:57:07.562Z,6.64
2023-01-30T12:59:45.268Z,6.56
2023-01-30T13:02:20.852Z,6.49
2023-01-30T13:05:15.306Z,6.61
2023-01-30T13:08:09.181Z,6.87
2023-01-30T13:10:40.048Z,6.92
2023-01-30T13:13:07.165Z,7.03
2023-01-30T13:15:53.981Z,6.97
2023-01-30T13:18:50.052Z,7.36
2023-01-30T13:21:21.803Z,7.66
2023-01-30T13:24:26.338Z,8.57
2023-01-30T13:26:53.746Z,9.20
2023-01-30T13:29:47.438Z,9.43
2023-01-30T13:32:36.013Z,10.22
2023-01-30T13:35:05.189Z,10.29
2023-01-30T13:37:32.328Z,10.08
2023-01-30T13:40:16.242Z,10.15
2023-01-30T13:43:07.360Z,10.72
2023-01-30T13:45:36.957Z,10.85
2023-01-30T13:48:44.793Z,10.85
2023-01-30T13:51:44.153Z,9.70
2023-01-30T13:54:35.760Z,10.66
2023-01-30T13:57:14.948Z,9.41
2023-01-30T14:00:17.641Z,9.15
2023-01-30T14:03:03.366Z,8.59
2023-01-30T14:05:51.998Z,8.06
2023-01-30T14:08:25.555Z,7.84
2023-01-30T14:10:52.871Z,7.92
2023-01-30T14:13:19.583Z,8.99
2023-01-30T14:15:56.122Z,9.75
2023-01-30T14:18:24.439Z,9.11
2023-01-30T14:20:51.895Z,8.58
2023-01-30T14:23:30.293Z,8.42
2023-01-30T14:25:57.220Z,8.15
2023-01-30T14:28:23.959Z,8.09
2023-01-30T14:30:55.254Z,7.81
2023-01-30T14:33:22.034Z,7.79
2023-01-30T14:35:48.723Z,7.84
2023-01-30T14:38:19.879Z,7.36
2023-01-30T14:41:07.909Z,7.67
2023-01-30T14:43:43.942Z,7.46
2023-01-30T14:46:19.965Z,7.41
2023-01-30T14:49:01.097Z,7.32
2023-01-30T14:51:37.284Z,7.41
2023-01-30T14:54:16.710Z,7.68
2023-01-30T14:56:46.215Z,7.56
2023-01-30T14:59:16.058Z,7.53
2023-01-30T15:02:14.082Z,7.58
2023-01-30T15:05:01.973Z,7.39
2023-01-30T15:07:44.869Z,7.32
2023-01-30T15:10:14.547Z,7.24
2023-01-30T15:12:44.109Z,7.20
2023-01-30T15:15:26.159Z,7.11
2023-01-30T15:18:14.603Z,7.07
2023-01-30T15:21:19.711Z,7.01
2023-01-30T15:24:08.091Z,7.06
2023-01-30T15:26:55.659Z,7.09
2023-01-30T15:29:40.699Z,7.08
2023-01-30T15:32:33.927Z,6.95
2023-01-30T15:35:22.654Z,6.99
2023-01-30T15:37:54.654Z,6.91
2023-01-30T15:40:25.347Z,6.90
2023-01-30T15:43:01.489Z,6.84
2023-01-30T15:45:53.033Z,6.81
2023-01-30T15:48:37.984Z,6.53
2023-01-30T15:51:04.978Z,6.54
2023-01-30T15:53:36.552Z,6.45
2023-01-30T15:56:10.760Z,6.44
2023-01-30T15:58:40.591Z,6.39
2023-01-30T16:01:07.745Z,6.40
2023-01-30T16:03:40.795Z,6.34
2023-01-30T16:06:09.427Z,6.30
2023-01-30T16:08:36.978Z,6.23
2023-01-30T16:11:04.798Z,6.23
2023-01-30T16:13:33.334Z,6.16
2023-01-30T16:16:00.157Z,6.18
2023-01-30T16:18:26.888Z,6.17
2023-01-30T16:21:01.938Z,6.16
2023-01-30T16:23:39.091Z,6.11
2023-01-30T16:26:08.110Z,6.10
2023-01-30T16:28:35.006Z,6.08
2023-01-30T16:31:04.523Z,5.99
2023-01-30T16:33:36.589Z,6.03
2023-01-30T16:36:20.169Z,6.08
2023-01-30T16:38:48.387Z,5.94
2023-01-30T16:41:35.928Z,6.09
2023-01-30T16:44:19.765Z,6.08
2023-01-30T16:46:48.277Z,6.14
2023-01-30T16:49:36.652Z,6.09
2023-01-30T16:52:23.245Z,6.14
2023-01-30T16:55:01.428Z,6.16
2023-01-30T16:57:39.789Z,6.19
2023-01-30T17:00:38.806Z,6.19
2023-01-30T17:03:08.460Z,6.17
2023-01-30T17:05:40.011Z,6.18
2023-01-30T17:08:47.741Z,6.23
2023-01-30T17:11:33.051Z,6.15
2023-01-30T17:14:21.889Z,6.13
2023-01-30T17:17:07.977Z,5.98
2023-01-30T17:19:35.953Z,6.09
2023-01-30T17:22:07.955Z,6.06
2023-01-30T17:24:35.877Z,5.88
2023-01-30T17:27:04.178Z,5.93
2023-01-30T17:29:42.314Z,5.99
2023-01-30T17:32:11.977Z,5.96
2023-01-30T17:34:41.191Z,5.89
2023-01-30T17:37:16.735Z,5.94
2023-01-30T17:39:43.705Z,5.92
2023-01-30T17:42:14.511Z,5.87
2023-01-30T17:44:41.591Z,5.94
2023-01-30T17:47:11.792Z,5.83
2023-01-30T17:49:39.111Z,5.90
2023-01-30T17:52:06.335Z,5.72
2023-01-30T17:54:33.146Z,5.83
2023-01-30T17:57:04.604Z,5.69
2023-01-30T17:59:32.678Z,5.58
2023-01-30T18:01:59.677Z,5.49
2023-01-30T18:04:26.639Z,5.46
2023-01-30T18:06:56.937Z,5.45
2023-01-30T18:09:24.711Z,5.49
2023-01-30T18:11:51.782Z,5.63
2023-01-30T18:14:19.000Z,5.53
2023-01-30T18:16:46.373Z,5.57
2023-01-30T18:19:15.159Z,5.54
2023-01-30T18:21:45.169Z,5.63
2023-01-30T18:24:13.075Z,5.75
2023-01-30T18:26:40.583Z,5.64
2023-01-30T18:29:09.840Z,5.56
2023-01-30T18:31:37.964Z,5.73
2023-01-30T18:34:05.066Z,5.78
2023-01-30T18:36:34.124Z,5.56
2023-01-30T18:39:01.419Z,5.54
2023-01-30T18:41:28.867Z,5.66
2023-01-30T18:44:04.245Z,5.64
2023-01-30T18:46:31.619Z,5.74
2023-01-30T18:48:58.824Z,5.59
2023-01-30T18:51:31.557Z,5.52
2023-01-30T18:53:59.444Z,5.43
2023-01-30T18:56:29.540Z,5.46
2023-01-30T18:58:57.460Z,5.36
2023-01-30T19:01:26.427Z,5.49
2023-01-30T19:03:57.539Z,5.72
2023-01-30T19:06:24.570Z,5.73
2023-01-30T19:08:51.355Z,5.62
2023-01-30T19:11:38.792Z,5.77
2023-01-30T19:14:05.836Z,5.80
2023-01-30T19:16:34.302Z,5.76
2023-01-30T19:19:01.437Z,5.70
2023-01-30T19:21:28.545Z,5.78
2023-01-30T19:23:56.421Z,5.85
2023-01-30T19:26:24.748Z,5.78
2023-01-30T19:28:52.299Z,5.93
2023-01-30T19:31:21.157Z,5.99
2023-01-30T19:33:54.401Z,6.02
2023-01-30T19:36:22.710Z,6.03
2023-01-30T19:38:50.089Z,5.93
2023-01-30T19:41:19.253Z,5.88
2023-01-30T19:43:46.099Z,5.94
2023-01-30T19:46:13.493Z,5.97
2023-01-30T19:48:44.385Z,6.02
2023-01-30T19:51:16.115Z,5.97
2023-01-30T19:53:44.207Z,5.93
2023-01-30T19:56:12.152Z,5.81
2023-01-30T19:58:40.229Z,5.73
2023-01-30T20:01:15.652Z,5.80
2023-01-30T20:03:42.918Z,5.71
2023-01-30T20:06:14.002Z,5.65
2023-01-30T20:08:42.066Z,5.58
2023-01-30T20:11:11.117Z,5.59
2023-01-30T20:13:39.604Z,5.61
2023-01-30T20:16:08.124Z,5.55
2023-01-30T20:18:37.403Z,5.68
2023-01-30T20:21:15.888Z,5.78
2023-01-30T20:23:46.509Z,5.82
2023-01-30T20:26:19.288Z,5.83
2023-01-30T20:28:46.305Z,5.88
2023-01-30T20:31:21.313Z,5.84
2023-01-30T20:33:48.808Z,5.89
2023-01-30T20:36:18.822Z,5.83
2023-01-30T20:38:47.533Z,5.68
2023-01-30T20:41:20.264Z,5.85
2023-01-30T20:43:51.105Z,5.83
2023-01-30T20:46:22.345Z,5.77
2023-01-30T20:48:52.176Z,5.76
2023-01-30T20:51:21.186Z,5.82
2023-01-30T20:53:55.898Z,5.78
2023-01-30T20:56:24.785Z,5.76
2023-01-30T20:58:51.712Z,5.76
2023-01-30T21:01:21.712Z,5.77
2023-01-30T21:03:50.610Z,5.69
2023-01-30T21:06:41.222Z,5.67
2023-01-30T21:09:06.913Z,5.56
2023-01-30T21:11:34.230Z,5.56
2023-01-30T21:14:01.184Z,5.51
2023-01-30T21:16:29.565Z,5.55
2023-01-30T21:19:01.349Z,5.49
2023-01-30T21:21:30.428Z,5.47
2023-01-30T21:24:01.161Z,5.46
2023-01-30T21:26:30.602Z,5.41
2023-01-30T21:28:57.915Z,5.41
2023-01-30T21:31:26.987Z,5.45
2023-01-30T21:33:56.516Z,5.35
2023-01-30T21:36:23.518Z,5.35
2023-01-30T21:39:08.916Z,5.27
2023-01-30T21:42:02.388Z,5.31
2023-01-30T21:44:32.091Z,5.31
2023-01-30T21:46:59.404Z,5.29
2023-01-30T21:49:26.736Z,5.32
2023-01-30T21:51:54.301Z,5.30
2023-01-30T21:54:21.807Z,5.32
2023-01-30T21:56:49.410Z,5.26
2023-01-30T21:59:17.000Z,5.25
2023-01-30T22:01:44.106Z,5.34
2023-01-30T22:04:14.055Z,5.30
2023-01-30T22:06:41.738Z,5.26
2023-01-30T22:09:08.999Z,5.33
2023-01-30T22:11:37.765Z,5.32
2023-01-30T22:14:04.806Z,5.32
2023-01-30T22:16:33.682Z,5.32
2023-01-30T22:19:03.366Z,5.29
2023-01-30T22:21:33.709Z,5.29
2023-01-30T22:24:01.804Z,5.31
2023-01-30T22:26:28.647Z,5.27
2023-01-30T22:29:00.110Z,5.29
2023-01-30T22:31:30.116Z,5.32
2023-01-30T22:33:57.271Z,5.27
2023-01-30T22:36:26.310Z,5.25
2023-01-30T22:38:53.437Z,5.28
2023-01-30T22:41:22.993Z,5.27
2023-01-30T22:43:55.541Z,5.30
2023-01-30T22:46:25.115Z,5.33
2023-01-30T22:48:52.285Z,5.35
2023-01-30T22:51:39.959Z,5.35
2023-01-30T22:54:10.859Z,5.38
2023-01-30T22:56:42.771Z,5.37
2023-01-30T22:59:10.204Z,5.35
2023-01-30T23:01:39.478Z,5.43
2023-01-30T23:04:10.957Z,5.43
2023-01-30T23:06:38.306Z,5.45
2023-01-30T23:09:06.485Z,5.54
2023-01-30T23:11:42.532Z,5.51
2023-01-30T23:14:15.083Z,5.59
2023-01-30T23:16:43.765Z,5.55
2023-01-30T23:19:12.436Z,5.57
2023-01-30T23:21:46.099Z,5.62
2023-01-30T23:24:15.917Z,5.62
2023-01-30T23:26:45.384Z,5.59
2023-01-30T23:29:14.314Z,5.69
2023-01-30T23:31:42.443Z,5.77
2023-01-30T23:34:13.613Z,5.82
2023-01-30T23:36:40.334Z,5.86
2023-01-30T23:39:07.397Z,5.93
2023-01-30T23:41:36.523Z,5.98
2023-01-30T23:44:03.994Z,6.03
2023-01-30T23:46:33.302Z,6.06
2023-01-30T23:49:05.405Z,6.12
2023-01-30T23:51:33.801Z,6.13
2023-01-30T23:54:00.621Z,6.11
2023-01-30T23:56:28.797Z,6.15
2023-01-30T23:58:56.093Z,6.11
